sensor_id;sensor_type;location;lat;lon;timestamp;pressure;altitude;pressure_sealevel;temperature
71807;BMP280;59655;42.590;23.364;2022-07-24T00:00:48;91842.59;;;24.43
71807;BMP280;59655;42.590;23.364;2022-07-24T00:03:14;91844.53;;;24.41
71807;BMP280;59655;42.590;23.364;2022-07-24T00:05:39;91839.78;;;24.41
71807;BMP280;59655;42.590;23.364;2022-07-24T00:08:04;91834.91;;;24.38
71807;BMP280;59655;42.590;23.364;2022-07-24T00:10:30;91847.50;;;24.29
71807;BMP280;59655;42.590;23.364;2022-07-24T00:12:56;91839.44;;;24.13
71807;BMP280;59655;42.590;23.364;2022-07-24T00:15:22;91853.50;;;24.08
71807;BMP280;59655;42.590;23.364;2022-07-24T00:17:47;91849.81;;;24.01
71807;BMP280;59655;42.590;23.364;2022-07-24T00:20:12;91842.31;;;23.82
71807;BMP280;59655;42.590;23.364;2022-07-24T00:22:38;91847.34;;;23.89
71807;BMP280;59655;42.590;23.364;2022-07-24T00:25:04;91845.31;;;23.90
71807;BMP280;59655;42.590;23.364;2022-07-24T00:27:30;91845.94;;;23.88
71807;BMP280;59655;42.590;23.364;2022-07-24T00:29:55;91845.09;;;23.84
71807;BMP280;59655;42.590;23.364;2022-07-24T00:32:20;91847.09;;;23.83
71807;BMP280;59655;42.590;23.364;2022-07-24T00:34:46;91850.19;;;23.76
71807;BMP280;59655;42.590;23.364;2022-07-24T00:37:11;91848.09;;;23.56
71807;BMP280;59655;42.590;23.364;2022-07-24T00:39:37;91854.78;;;23.55
71807;BMP280;59655;42.590;23.364;2022-07-24T00:42:03;91843.44;;;23.59
71807;BMP280;59655;42.590;23.364;2022-07-24T00:44:28;91841.78;;;23.52
71807;BMP280;59655;42.590;23.364;2022-07-24T00:46:54;91850.34;;;23.46
71807;BMP280;59655;42.590;23.364;2022-07-24T00:49:20;91847.41;;;23.40
71807;BMP280;59655;42.590;23.364;2022-07-24T00:51:49;91844.06;;;23.41
71807;BMP280;59655;42.590;23.364;2022-07-24T00:54:17;91841.88;;;23.38
71807;BMP280;59655;42.590;23.364;2022-07-24T00:56:44;91836.41;;;23.36
71807;BMP280;59655;42.590;23.364;2022-07-24T00:59:10;91830.97;;;23.36
71807;BMP280;59655;42.590;23.364;2022-07-24T01:01:36;91835.53;;;23.31
71807;BMP280;59655;42.590;23.364;2022-07-24T01:04:01;91826.53;;;23.27
71807;BMP280;59655;42.590;23.364;2022-07-24T01:06:27;91832.66;;;23.11
71807;BMP280;59655;42.590;23.364;2022-07-24T01:08:53;91822.13;;;23.17
71807;BMP280;59655;42.590;23.364;2022-07-24T01:11:19;91821.38;;;23.33
71807;BMP280;59655;42.590;23.364;2022-07-24T01:13:47;91823.75;;;23.25
71807;BMP280;59655;42.590;23.364;2022-07-24T01:16:12;91816.94;;;23.24
71807;BMP280;59655;42.590;23.364;2022-07-24T01:18:38;91817.03;;;23.26
71807;BMP280;59655;42.590;23.364;2022-07-24T01:21:04;91822.81;;;23.18
71807;BMP280;59655;42.590;23.364;2022-07-24T01:23:30;91817.94;;;23.14
71807;BMP280;59655;42.590;23.364;2022-07-24T01:25:55;91826.88;;;23.19
71807;BMP280;59655;42.590;23.364;2022-07-24T01:28:21;91826.22;;;23.18
71807;BMP280;59655;42.590;23.364;2022-07-24T01:30:46;91829.16;;;23.25
71807;BMP280;59655;42.590;23.364;2022-07-24T01:33:12;91824.69;;;23.31
71807;BMP280;59655;42.590;23.364;2022-07-24T01:35:39;91818.84;;;23.21
71807;BMP280;59655;42.590;23.364;2022-07-24T01:38:05;91820.53;;;23.12
71807;BMP280;59655;42.590;23.364;2022-07-24T01:40:30;91821.56;;;23.21
71807;BMP280;59655;42.590;23.364;2022-07-24T01:42:55;91822.28;;;23.21
71807;BMP280;59655;42.590;23.364;2022-07-24T01:45:21;91821.50;;;23.03
71807;BMP280;59655;42.590;23.364;2022-07-24T01:47:46;91816.19;;;22.89
71807;BMP280;59655;42.590;23.364;2022-07-24T01:50:12;91812.34;;;22.79
71807;BMP280;59655;42.590;23.364;2022-07-24T01:52:38;91814.44;;;22.80
71807;BMP280;59655;42.590;23.364;2022-07-24T01:55:04;91811.56;;;22.76
71807;BMP280;59655;42.590;23.364;2022-07-24T01:57:31;91810.88;;;22.76
71807;BMP280;59655;42.590;23.364;2022-07-24T01:59:58;91818.38;;;22.77
71807;BMP280;59655;42.590;23.364;2022-07-24T02:02:23;91802.59;;;22.87
71807;BMP280;59655;42.590;23.364;2022-07-24T02:04:48;91799.25;;;22.89
71807;BMP280;59655;42.590;23.364;2022-07-24T02:07:14;91794.47;;;22.87
71807;BMP280;59655;42.590;23.364;2022-07-24T02:09:39;91796.28;;;22.83
71807;BMP280;59655;42.590;23.364;2022-07-24T02:12:05;91796.28;;;22.83
71807;BMP280;59655;42.590;23.364;2022-07-24T02:14:31;91790.88;;;22.83
71807;BMP280;59655;42.590;23.364;2022-07-24T02:16:57;91790.69;;;22.79
71807;BMP280;59655;42.590;23.364;2022-07-24T02:19:22;91788.94;;;22.85
71807;BMP280;59655;42.590;23.364;2022-07-24T02:21:49;91793.84;;;22.89
71807;BMP280;59655;42.590;23.364;2022-07-24T02:24:14;91790.44;;;22.88
71807;BMP280;59655;42.590;23.364;2022-07-24T02:26:40;91795.22;;;22.90
71807;BMP280;59655;42.590;23.364;2022-07-24T02:29:05;91790.28;;;22.84
71807;BMP280;59655;42.590;23.364;2022-07-24T02:31:31;91780.13;;;22.85
71807;BMP280;59655;42.590;23.364;2022-07-24T02:33:56;91787.56;;;22.84
71807;BMP280;59655;42.590;23.364;2022-07-24T02:36:22;91788.94;;;22.85
71807;BMP280;59655;42.590;23.364;2022-07-24T02:38:47;91780.94;;;22.87
71807;BMP280;59655;42.590;23.364;2022-07-24T02:41:12;91784.50;;;22.92
71807;BMP280;59655;42.590;23.364;2022-07-24T02:43:38;91781.78;;;22.92
71807;BMP280;59655;42.590;23.364;2022-07-24T02:46:03;91774.19;;;22.88
71807;BMP280;59655;42.590;23.364;2022-07-24T02:48:29;91794.28;;;22.83
71807;BMP280;59655;42.590;23.364;2022-07-24T02:50:54;91776.09;;;22.86
71807;BMP280;59655;42.590;23.364;2022-07-24T02:53:20;91788.25;;;22.85
71807;BMP280;59655;42.590;23.364;2022-07-24T02:55:45;91792.44;;;22.88
71807;BMP280;59655;42.590;23.364;2022-07-24T02:58:11;91795.41;;;22.94
71807;BMP280;59655;42.590;23.364;2022-07-24T03:00:36;91785.88;;;22.93
71807;BMP280;59655;42.590;23.364;2022-07-24T03:03:02;91785.03;;;22.88
71807;BMP280;59655;42.590;23.364;2022-07-24T03:05:31;91784.16;;;22.84
71807;BMP280;59655;42.590;23.364;2022-07-24T03:07:56;91780.50;;;22.77
71807;BMP280;59655;42.590;23.364;2022-07-24T03:10:22;91775.69;;;22.76
71807;BMP280;59655;42.590;23.364;2022-07-24T03:12:47;91785.28;;;22.79
71807;BMP280;59655;42.590;23.364;2022-07-24T03:15:13;91779.78;;;22.77
71807;BMP280;59655;42.590;23.364;2022-07-24T03:17:39;91785.81;;;22.75
71807;BMP280;59655;42.590;23.364;2022-07-24T03:20:05;91789.41;;;22.80
71807;BMP280;59655;42.590;23.364;2022-07-24T03:22:31;91783.66;;;22.71
71807;BMP280;59655;42.590;23.364;2022-07-24T03:24:56;91782.75;;;22.83
71807;BMP280;59655;42.590;23.364;2022-07-24T03:27:22;91789.31;;;22.78
71807;BMP280;59655;42.590;23.364;2022-07-24T03:29:47;91788.84;;;22.67
71807;BMP280;59655;42.590;23.364;2022-07-24T03:32:12;91791.38;;;22.63
71807;BMP280;59655;42.590;23.364;2022-07-24T03:34:38;91782.56;;;22.63
71807;BMP280;59655;42.590;23.364;2022-07-24T03:37:03;91788.63;;;22.61
71807;BMP280;59655;42.590;23.364;2022-07-24T03:39:29;91793.50;;;22.65
71807;BMP280;59655;42.590;23.364;2022-07-24T03:41:54;91797.69;;;22.68
71807;BMP280;59655;42.590;23.364;2022-07-24T03:44:19;91800.56;;;22.56
71807;BMP280;59655;42.590;23.364;2022-07-24T03:46:45;91801.88;;;22.55
71807;BMP280;59655;42.590;23.364;2022-07-24T03:49:10;91806.59;;;22.70
71807;BMP280;59655;42.590;23.364;2022-07-24T03:51:36;91799.22;;;22.73
71807;BMP280;59655;42.590;23.364;2022-07-24T03:54:02;91791.94;;;22.76
71807;BMP280;59655;42.590;23.364;2022-07-24T03:56:29;91805.88;;;22.70
71807;BMP280;59655;42.590;23.364;2022-07-24T03:58:55;91803.81;;;22.68
71807;BMP280;59655;42.590;23.364;2022-07-24T04:01:21;91808.00;;;22.71
71807;BMP280;59655;42.590;23.364;2022-07-24T04:03:47;91810.94;;;22.78
71807;BMP280;59655;42.590;23.364;2022-07-24T04:06:13;91795.25;;;22.74
71807;BMP280;59655;42.590;23.364;2022-07-24T04:08:38;91802.03;;;22.59
71807;BMP280;59655;42.590;23.364;2022-07-24T04:11:04;91800.06;;;22.60
71807;BMP280;59655;42.590;23.364;2022-07-24T04:13:30;91793.94;;;22.59
71807;BMP280;59655;42.590;23.364;2022-07-24T04:15:56;91795.16;;;22.56
71807;BMP280;59655;42.590;23.364;2022-07-24T04:18:22;91796.47;;;22.55
71807;BMP280;59655;42.590;23.364;2022-07-24T04:20:48;91791.31;;;22.61
71807;BMP280;59655;42.590;23.364;2022-07-24T04:23:14;91797.06;;;22.69
71807;BMP280;59655;42.590;23.364;2022-07-24T04:25:40;91801.00;;;22.66
71807;BMP280;59655;42.590;23.364;2022-07-24T04:28:05;91805.09;;;22.67
71807;BMP280;59655;42.590;23.364;2022-07-24T04:30:31;91789.75;;;22.72
71807;BMP280;59655;42.590;23.364;2022-07-24T04:32:57;91797.94;;;22.74
71807;BMP280;59655;42.590;23.364;2022-07-24T04:35:22;91794.81;;;22.80
71807;BMP280;59655;42.590;23.364;2022-07-24T04:37:48;91793.56;;;22.83
71807;BMP280;59655;42.590;23.364;2022-07-24T04:40:13;91797.69;;;22.84
71807;BMP280;59655;42.590;23.364;2022-07-24T04:42:39;91790.16;;;22.98
71807;BMP280;59655;42.590;23.364;2022-07-24T04:45:05;91788.75;;;22.97
71807;BMP280;59655;42.590;23.364;2022-07-24T04:47:33;91793.13;;;23.04
71807;BMP280;59655;42.590;23.364;2022-07-24T04:49:58;91795.22;;;23.06
71807;BMP280;59655;42.590;23.364;2022-07-24T04:52:24;91791.38;;;23.11
71807;BMP280;59655;42.590;23.364;2022-07-24T04:54:49;91792.94;;;23.16
71807;BMP280;59655;42.590;23.364;2022-07-24T04:57:14;91794.38;;;23.19
71807;BMP280;59655;42.590;23.364;2022-07-24T04:59:40;91791.25;;;23.25
71807;BMP280;59655;42.590;23.364;2022-07-24T05:02:05;91799.69;;;23.33
71807;BMP280;59655;42.590;23.364;2022-07-24T05:04:31;91804.06;;;23.40
71807;BMP280;59655;42.590;23.364;2022-07-24T05:06:56;91796.00;;;23.42
71807;BMP280;59655;42.590;23.364;2022-07-24T05:09:22;91811.19;;;23.49
71807;BMP280;59655;42.590;23.364;2022-07-24T05:11:47;91803.22;;;23.53
71807;BMP280;59655;42.590;23.364;2022-07-24T05:14:12;91802.69;;;23.57
71807;BMP280;59655;42.590;23.364;2022-07-24T05:16:38;91798.69;;;23.58
71807;BMP280;59655;42.590;23.364;2022-07-24T05:19:03;91795.97;;;23.58
71807;BMP280;59655;42.590;23.364;2022-07-24T05:21:29;91800.81;;;23.61
71807;BMP280;59655;42.590;23.364;2022-07-24T05:23:55;91799.53;;;23.62
71807;BMP280;59655;42.590;23.364;2022-07-24T05:26:20;91801.72;;;23.66
71807;BMP280;59655;42.590;23.364;2022-07-24T05:28:45;91802.56;;;23.70
71807;BMP280;59655;42.590;23.364;2022-07-24T05:31:11;91809.38;;;23.71
71807;BMP280;59655;42.590;23.364;2022-07-24T05:33:37;91809.47;;;23.74
71807;BMP280;59655;42.590;23.364;2022-07-24T05:36:02;91807.44;;;23.74
71807;BMP280;59655;42.590;23.364;2022-07-24T05:38:28;91813.69;;;23.79
71807;BMP280;59655;42.590;23.364;2022-07-24T05:40:53;91802.19;;;23.78
71807;BMP280;59655;42.590;23.364;2022-07-24T05:43:20;91814.50;;;23.81
71807;BMP280;59655;42.590;23.364;2022-07-24T05:45:46;91812.63;;;23.86
71807;BMP280;59655;42.590;23.364;2022-07-24T05:48:11;91816.28;;;23.92
71807;BMP280;59655;42.590;23.364;2022-07-24T05:50:36;91817.59;;;23.91
71807;BMP280;59655;42.590;23.364;2022-07-24T05:53:02;91816.91;;;23.91
71807;BMP280;59655;42.590;23.364;2022-07-24T05:55:27;91821.06;;;23.94
71807;BMP280;59655;42.590;23.364;2022-07-24T05:57:54;91813.19;;;24.00
71807;BMP280;59655;42.590;23.364;2022-07-24T06:00:20;91811.25;;;24.03
71807;BMP280;59655;42.590;23.364;2022-07-24T06:02:46;91812.00;;;24.05
71807;BMP280;59655;42.590;23.364;2022-07-24T06:05:13;91810.63;;;24.04
71807;BMP280;59655;42.590;23.364;2022-07-24T06:07:39;91817.56;;;24.09
71807;BMP280;59655;42.590;23.364;2022-07-24T06:10:05;91810.22;;;24.12
71807;BMP280;59655;42.590;23.364;2022-07-24T06:12:30;91813.19;;;24.18
71807;BMP280;59655;42.590;23.364;2022-07-24T06:14:56;91816.03;;;24.22
71807;BMP280;59655;42.590;23.364;2022-07-24T06:17:21;91810.69;;;24.24
71807;BMP280;59655;42.590;23.364;2022-07-24T06:19:47;91808.72;;;24.27
71807;BMP280;59655;42.590;23.364;2022-07-24T06:22:12;91807.47;;;24.30
71807;BMP280;59655;42.590;23.364;2022-07-24T06:24:37;91801.44;;;24.31
71807;BMP280;59655;42.590;23.364;2022-07-24T06:27:03;91809.03;;;24.35
71807;BMP280;59655;42.590;23.364;2022-07-24T06:29:30;91807.09;;;24.37
71807;BMP280;59655;42.590;23.364;2022-07-24T06:31:56;91808.59;;;24.40
71807;BMP280;59655;42.590;23.364;2022-07-24T06:34:21;91808.66;;;24.42
71807;BMP280;59655;42.590;23.364;2022-07-24T06:36:49;91802.88;;;24.52
71807;BMP280;59655;42.590;23.364;2022-07-24T06:39:15;91804.47;;;24.59
71807;BMP280;59655;42.590;23.364;2022-07-24T06:41:40;91799.19;;;24.63
71807;BMP280;59655;42.590;23.364;2022-07-24T06:44:05;91794.53;;;24.66
71807;BMP280;59655;42.590;23.364;2022-07-24T06:46:31;91800.66;;;24.66
71807;BMP280;59655;42.590;23.364;2022-07-24T06:48:56;91799.41;;;24.69
71807;BMP280;59655;42.590;23.364;2022-07-24T06:51:22;91799.50;;;24.72
71807;BMP280;59655;42.590;23.364;2022-07-24T06:53:47;91791.41;;;24.74
71807;BMP280;59655;42.590;23.364;2022-07-24T06:56:13;91794.88;;;24.76
71807;BMP280;59655;42.590;23.364;2022-07-24T06:58:38;91791.56;;;24.78
71807;BMP280;59655;42.590;23.364;2022-07-24T07:01:04;91788.97;;;24.82
71807;BMP280;59655;42.590;23.364;2022-07-24T07:03:29;91804.03;;;24.85
71807;BMP280;59655;42.590;23.364;2022-07-24T07:05:54;91791.84;;;24.86
71807;BMP280;59655;42.590;23.364;2022-07-24T07:08:20;91795.94;;;24.87
71807;BMP280;59655;42.590;23.364;2022-07-24T07:10:45;91790.59;;;24.89
71807;BMP280;59655;42.590;23.364;2022-07-24T07:13:11;91800.19;;;24.92
71807;BMP280;59655;42.590;23.364;2022-07-24T07:15:36;91798.31;;;24.97
71807;BMP280;59655;42.590;23.364;2022-07-24T07:18:02;91801.72;;;24.97
71807;BMP280;59655;42.590;23.364;2022-07-24T07:20:27;91794.34;;;25.00
71807;BMP280;59655;42.590;23.364;2022-07-24T07:22:52;91800.53;;;25.02
71807;BMP280;59655;42.590;23.364;2022-07-24T07:25:18;91797.91;;;25.04
71807;BMP280;59655;42.590;23.364;2022-07-24T07:27:43;91801.97;;;25.05
71807;BMP280;59655;42.590;23.364;2022-07-24T07:30:09;91800.66;;;25.06
71807;BMP280;59655;42.590;23.364;2022-07-24T07:32:34;91797.31;;;25.08
71807;BMP280;59655;42.590;23.364;2022-07-24T07:35:00;91798.09;;;25.10
71807;BMP280;59655;42.590;23.364;2022-07-24T07:37:26;91798.16;;;25.12
71807;BMP280;59655;42.590;23.364;2022-07-24T07:39:51;91806.38;;;25.14
71807;BMP280;59655;42.590;23.364;2022-07-24T07:42:17;91799.63;;;25.15
71807;BMP280;59655;42.590;23.364;2022-07-24T07:44:42;91801.06;;;25.18
71807;BMP280;59655;42.590;23.364;2022-07-24T07:47:08;91802.53;;;25.22
71807;BMP280;59655;42.590;23.364;2022-07-24T07:49:33;91796.59;;;25.27
71807;BMP280;59655;42.590;23.364;2022-07-24T07:51:59;91797.31;;;25.28
71807;BMP280;59655;42.590;23.364;2022-07-24T07:54:24;91801.50;;;25.31
71807;BMP280;59655;42.590;23.364;2022-07-24T07:56:50;91798.81;;;25.33
71807;BMP280;59655;42.590;23.364;2022-07-24T07:59:15;91797.50;;;25.34
71807;BMP280;59655;42.590;23.364;2022-07-24T08:01:41;91788.03;;;25.35
71807;BMP280;59655;42.590;23.364;2022-07-24T08:04:06;91798.97;;;25.37
71807;BMP280;59655;42.590;23.364;2022-07-24T08:06:31;91796.94;;;25.37
71807;BMP280;59655;42.590;23.364;2022-07-24T08:08:57;91792.31;;;25.42
71807;BMP280;59655;42.590;23.364;2022-07-24T08:11:22;91795.16;;;25.46
71807;BMP280;59655;42.590;23.364;2022-07-24T08:13:48;91801.44;;;25.51
71807;BMP280;59655;42.590;23.364;2022-07-24T08:16:13;91793.31;;;25.53
71807;BMP280;59655;42.590;23.364;2022-07-24T08:18:39;91805.59;;;25.54
71807;BMP280;59655;42.590;23.364;2022-07-24T08:21:05;91811.78;;;25.56
71807;BMP280;59655;42.590;23.364;2022-07-24T08:23:30;91804.41;;;25.59
71807;BMP280;59655;42.590;23.364;2022-07-24T08:25:56;91808.59;;;25.62
71807;BMP280;59655;42.590;23.364;2022-07-24T08:28:21;91812.75;;;25.65
71807;BMP280;59655;42.590;23.364;2022-07-24T08:30:49;91812.78;;;25.67
71807;BMP280;59655;42.590;23.364;2022-07-24T08:33:15;91808.78;;;25.68
71807;BMP280;59655;42.590;23.364;2022-07-24T08:35:40;91821.09;;;25.71
71807;BMP280;59655;42.590;23.364;2022-07-24T08:38:06;91821.22;;;25.75
71807;BMP280;59655;42.590;23.364;2022-07-24T08:40:33;91824.88;;;25.84
71807;BMP280;59655;42.590;23.364;2022-07-24T08:43:00;91817.03;;;25.94
71807;BMP280;59655;42.590;23.364;2022-07-24T08:45:26;91828.19;;;26.02
71807;BMP280;59655;42.590;23.364;2022-07-24T08:47:52;91825.69;;;26.10
71807;BMP280;59655;42.590;23.364;2022-07-24T08:50:19;91825.91;;;26.18
71807;BMP280;59655;42.590;23.364;2022-07-24T08:52:45;91827.50;;;26.26
71807;BMP280;59655;42.590;23.364;2022-07-24T08:55:10;91828.34;;;26.32
71807;BMP280;59655;42.590;23.364;2022-07-24T08:57:36;91821.03;;;26.37
71807;BMP280;59655;42.590;23.364;2022-07-24T09:00:03;91824.53;;;26.41
71807;BMP280;59655;42.590;23.364;2022-07-24T09:02:28;91824.09;;;26.49
71807;BMP280;59655;42.590;23.364;2022-07-24T09:05:00;91828.25;;;26.52
71807;BMP280;59655;42.590;23.364;2022-07-24T09:07:28;91828.38;;;26.56
71807;BMP280;59655;42.590;23.364;2022-07-24T09:12:31;91823.97;;;26.69
71807;BMP280;59655;42.590;23.364;2022-07-24T09:14:57;91814.50;;;26.72
71807;BMP280;59655;42.590;23.364;2022-07-24T09:17:23;91820.69;;;26.74
71807;BMP280;59655;42.590;23.364;2022-07-24T09:20:00;91816.66;;;26.76
71807;BMP280;59655;42.590;23.364;2022-07-24T09:22:40;91822.13;;;26.78
71807;BMP280;59655;42.590;23.364;2022-07-24T09:27:49;91828.81;;;26.72
71807;BMP280;59655;42.590;23.364;2022-07-24T09:30:22;91815.69;;;26.67
71807;BMP280;59655;42.590;23.364;2022-07-24T09:32:55;91825.31;;;26.70
71807;BMP280;59655;42.590;23.364;2022-07-24T09:35:23;91828.75;;;26.70
71807;BMP280;59655;42.590;23.364;2022-07-24T09:37:56;91823.47;;;26.77
71807;BMP280;59655;42.590;23.364;2022-07-24T09:40:28;91824.28;;;26.81
71807;BMP280;59655;42.590;23.364;2022-07-24T09:43:11;91821.56;;;26.81
71807;BMP280;59655;42.590;23.364;2022-07-24T09:46:09;91812.91;;;26.89
71807;BMP280;59655;42.590;23.364;2022-07-24T09:48:48;91814.41;;;26.94
71807;BMP280;59655;42.590;23.364;2022-07-24T09:51:16;91814.53;;;27.26
71807;BMP280;59655;42.590;23.364;2022-07-24T09:53:43;91811.50;;;27.14
71807;BMP280;59655;42.590;23.364;2022-07-24T09:58:37;91812.34;;;27.20
71807;BMP280;59655;42.590;23.364;2022-07-24T10:01:04;91814.75;;;27.34
71807;BMP280;59655;42.590;23.364;2022-07-24T10:03:32;91808.84;;;27.44
71807;BMP280;59655;42.590;23.364;2022-07-24T10:06:05;91809.81;;;27.57
71807;BMP280;59655;42.590;23.364;2022-07-24T10:08:32;91799.78;;;27.65
71807;BMP280;59655;42.590;23.364;2022-07-24T10:10:59;91807.72;;;27.55
71807;BMP280;59655;42.590;23.364;2022-07-24T10:13:25;91808.16;;;27.45
71807;BMP280;59655;42.590;23.364;2022-07-24T10:18:49;91793.06;;;28.00
71807;BMP280;59655;42.590;23.364;2022-07-24T10:21:21;91796.97;;;27.91
71807;BMP280;59655;42.590;23.364;2022-07-24T10:26:40;91800.28;;;27.88
71807;BMP280;59655;42.590;23.364;2022-07-24T10:29:27;91800.53;;;27.98
71807;BMP280;59655;42.590;23.364;2022-07-24T10:31:55;91799.00;;;27.91
71807;BMP280;59655;42.590;23.364;2022-07-24T10:40:02;91798.16;;;28.16
71807;BMP280;59655;42.590;23.364;2022-07-24T10:42:29;91795.13;;;28.02
71807;BMP280;59655;42.590;23.364;2022-07-24T10:47:40;91786.66;;;27.88
71807;BMP280;59655;42.590;23.364;2022-07-24T10:50:05;91783.31;;;27.91
71807;BMP280;59655;42.590;23.364;2022-07-24T10:52:32;91783.78;;;27.82
71807;BMP280;59655;42.590;23.364;2022-07-24T10:55:30;91788.59;;;27.83
71807;BMP280;59655;42.590;23.364;2022-07-24T11:00:24;91782.38;;;27.79
71807;BMP280;59655;42.590;23.364;2022-07-24T11:03:20;91783.69;;;27.77
71807;BMP280;59655;42.590;23.364;2022-07-24T11:06:05;91779.78;;;27.85
71807;BMP280;59655;42.590;23.364;2022-07-24T11:08:38;91783.09;;;27.81
71807;BMP280;59655;42.590;23.364;2022-07-24T11:11:18;91772.72;;;28.06
71807;BMP280;59655;42.590;23.364;2022-07-24T11:13:47;91762.56;;;28.10
71807;BMP280;59655;42.590;23.364;2022-07-24T11:16:18;91768.81;;;28.15
71807;BMP280;59655;42.590;23.364;2022-07-24T11:21:29;91765.22;;;28.78
71807;BMP280;59655;42.590;23.364;2022-07-24T11:29:24;91764.56;;;28.42
71807;BMP280;59655;42.590;23.364;2022-07-24T11:32:10;91763.84;;;28.41
71807;BMP280;59655;42.590;23.364;2022-07-24T11:34:48;91755.00;;;28.43
71807;BMP280;59655;42.590;23.364;2022-07-24T11:37:14;91747.13;;;28.59
71807;BMP280;59655;42.590;23.364;2022-07-24T11:39:40;91752.91;;;28.77
71807;BMP280;59655;42.590;23.364;2022-07-24T11:42:08;91747.91;;;29.06
71807;BMP280;59655;42.590;23.364;2022-07-24T11:44:36;91741.91;;;29.14
71807;BMP280;59655;42.590;23.364;2022-07-24T11:47:08;91738.38;;;29.05
71807;BMP280;59655;42.590;23.364;2022-07-24T11:52:08;91740.78;;;29.29
71807;BMP280;59655;42.590;23.364;2022-07-24T11:54:39;91740.72;;;29.27
71807;BMP280;59655;42.590;23.364;2022-07-24T11:57:05;91741.41;;;29.27
71807;BMP280;59655;42.590;23.364;2022-07-24T11:59:40;91739.72;;;29.06
71807;BMP280;59655;42.590;23.364;2022-07-24T12:02:07;91738.88;;;28.95
71807;BMP280;59655;42.590;23.364;2022-07-24T12:04:34;91731.38;;;28.96
71807;BMP280;59655;42.590;23.364;2022-07-24T12:07:00;91734.16;;;29.00
71807;BMP280;59655;42.590;23.364;2022-07-24T12:09:26;91738.56;;;29.17
71807;BMP280;59655;42.590;23.364;2022-07-24T12:11:52;91743.28;;;29.15
71807;BMP280;59655;42.590;23.364;2022-07-24T12:14:20;91732.28;;;29.11
71807;BMP280;59655;42.590;23.364;2022-07-24T12:16:54;91730.59;;;28.91
71807;BMP280;59655;42.590;23.364;2022-07-24T12:19:24;91736.53;;;28.79
71807;BMP280;59655;42.590;23.364;2022-07-24T12:21:53;91739.41;;;28.88
71807;BMP280;59655;42.590;23.364;2022-07-24T12:24:19;91728.09;;;29.05
71807;BMP280;59655;42.590;23.364;2022-07-24T12:26:56;91723.09;;;28.92
71807;BMP280;59655;42.590;23.364;2022-07-24T12:29:23;91725.06;;;28.87
71807;BMP280;59655;42.590;23.364;2022-07-24T12:31:49;91721.69;;;28.91
71807;BMP280;59655;42.590;23.364;2022-07-24T12:34:15;91725.31;;;29.01
71807;BMP280;59655;42.590;23.364;2022-07-24T12:36:41;91728.16;;;29.10
71807;BMP280;59655;42.590;23.364;2022-07-24T12:39:10;91724.13;;;29.13
71807;BMP280;59655;42.590;23.364;2022-07-24T12:41:45;91719.47;;;29.21
71807;BMP280;59655;42.590;23.364;2022-07-24T12:44:13;91713.44;;;29.29
71807;BMP280;59655;42.590;23.364;2022-07-24T12:46:43;91722.47;;;29.40
71807;BMP280;59655;42.590;23.364;2022-07-24T12:49:10;91715.81;;;29.53
71807;BMP280;59655;42.590;23.364;2022-07-24T12:56:51;91708.84;;;30.55
71807;BMP280;59655;42.590;23.364;2022-07-24T12:59:30;91700.75;;;30.75
71807;BMP280;59655;42.590;23.364;2022-07-24T13:01:58;91698.94;;;31.00
71807;BMP280;59655;42.590;23.364;2022-07-24T13:04:25;91694.47;;;31.60
71807;BMP280;59655;42.590;23.364;2022-07-24T13:06:56;91693.19;;;31.81
71807;BMP280;59655;42.590;23.364;2022-07-24T13:09:22;91691.16;;;31.80
71807;BMP280;59655;42.590;23.364;2022-07-24T13:11:49;91693.03;;;31.44
71807;BMP280;59655;42.590;23.364;2022-07-24T13:14:16;91691.72;;;31.56
71807;BMP280;59655;42.590;23.364;2022-07-24T13:16:44;91684.28;;;31.77
71807;BMP280;59655;42.590;23.364;2022-07-24T13:19:10;91678.72;;;31.62
71807;BMP280;59655;42.590;23.364;2022-07-24T13:21:37;91672.50;;;31.54
71807;BMP280;59655;42.590;23.364;2022-07-24T13:24:07;91673.19;;;31.50
71807;BMP280;59655;42.590;23.364;2022-07-24T13:26:33;91665.56;;;31.38
71807;BMP280;59655;42.590;23.364;2022-07-24T13:29:00;91669.00;;;31.39
71807;BMP280;59655;42.590;23.364;2022-07-24T13:31:25;91671.03;;;31.34
71807;BMP280;59655;42.590;23.364;2022-07-24T13:33:51;91664.13;;;31.29
71807;BMP280;59655;42.590;23.364;2022-07-24T13:36:17;91658.75;;;31.43
71807;BMP280;59655;42.590;23.364;2022-07-24T13:38:43;91661.47;;;31.45
71807;BMP280;59655;42.590;23.364;2022-07-24T13:41:10;91653.91;;;31.36
71807;BMP280;59655;42.590;23.364;2022-07-24T13:43:35;91645.63;;;31.28
71807;BMP280;59655;42.590;23.364;2022-07-24T13:46:01;91650.41;;;31.31
71807;BMP280;59655;42.590;23.364;2022-07-24T13:48:26;91653.16;;;31.25
71807;BMP280;59655;42.590;23.364;2022-07-24T13:50:52;91643.50;;;31.18
71807;BMP280;59655;42.590;23.364;2022-07-24T13:53:17;91642.78;;;31.11
71807;BMP280;59655;42.590;23.364;2022-07-24T13:55:43;91642.53;;;30.75
71807;BMP280;59655;42.590;23.364;2022-07-24T13:58:08;91640.34;;;30.59
71807;BMP280;59655;42.590;23.364;2022-07-24T14:00:34;91640.91;;;30.45
71807;BMP280;59655;42.590;23.364;2022-07-24T14:02:59;91638.72;;;30.33
71807;BMP280;59655;42.590;23.364;2022-07-24T14:05:25;91657.22;;;30.33
71807;BMP280;59655;42.590;23.364;2022-07-24T14:07:51;91655.19;;;30.35
71807;BMP280;59655;42.590;23.364;2022-07-24T14:10:18;91659.94;;;30.31
71807;BMP280;59655;42.590;23.364;2022-07-24T14:12:43;91658.47;;;30.22
71807;BMP280;59655;42.590;23.364;2022-07-24T14:15:09;91662.56;;;30.19
71807;BMP280;59655;42.590;23.364;2022-07-24T14:17:35;91657.06;;;30.17
71807;BMP280;59655;42.590;23.364;2022-07-24T14:20:02;91657.66;;;30.09
71807;BMP280;59655;42.590;23.364;2022-07-24T14:22:28;91656.25;;;30.06
71807;BMP280;59655;42.590;23.364;2022-07-24T14:24:53;91650.75;;;30.04
71807;BMP280;59655;42.590;23.364;2022-07-24T14:27:18;91654.91;;;30.05
71807;BMP280;59655;42.590;23.364;2022-07-24T14:29:44;91668.47;;;29.97
71807;BMP280;59655;42.590;23.364;2022-07-24T14:32:09;91691.56;;;29.81
71807;BMP280;59655;42.590;23.364;2022-07-24T14:34:35;91702.06;;;29.49